Homer, AK

6:00 PM AKDT on March 27, 2015 (GMT -0800)
Homer | | Change Station
CLOSE
Current Station
Airport
Location: Homer,
Elevation: 82 ft
Nearby Weather Stations

Elev 82 ft 59.65 °N, 151.48 °W | Updated 7 minutes ago

Scattered Clouds
Scattered Clouds
44 °F
Feels Like 39 °F
N
10
Wind Variable Wind from East

Today
High -- | Low -- °F
--% Chance of Precip.
Yesterday
High -- | Low -- °F
Precip. -- in
7:46 AM 8:37 PM
First Quarter, 58% visible
Pressure 29.55 in
Visibility 10.0 miles
Clouds Scattered Clouds 4200 ft
Scattered Clouds 5500 ft
Windchill 39 °F
Dew Point 35 °F
Humidity 71%
Rainfall 0.10 in
Snow Depth Not available.
UV 1 out of 12
Pollen Not available.
Air Quality Not available.
Flu Activity Not available.
METAR PAHO 280153Z AUTO 08009KT 10SM SCT042 SCT055 07/02 A2955 RMK AO2 RAB31E47 SLP006 P0000 T00670017 TSNO

More Conditions Fewer Conditions

Pressure 29.55 in
Visibility 10.0 miles
Clouds Scattered Clouds 4200 ft
Scattered Clouds 5500 ft
Windchill 39 °F
Dew Point 35 °F
Humidity 71%
Rainfall 0.10 in
Snow Depth Not available.
UV 1 out of 12
Pollen Not available.
Air Quality Not available.
Flu Activity Not available.
METAR PAHO 280153Z AUTO 08009KT 10SM SCT042 SCT055 07/02 A2955 RMK AO2 RAB31E47 SLP006 P0000 T00670017 TSNO

More Conditions Fewer Conditions

10-Day Weather Forecast

Almanac

Astronomy

Mar. 27, 2015 Rise Set
Actual Time
Civil Twilight
Nautical Twilight
Astronomical Twilight
Moon
Length of Visible Light
Length of Day
Tomorrow will be .
, % of the Moon is Illuminated

Today's Extremes

State Highs State Lows

Community

WunderPhotos

Upload Photos

1,808,911 photos uploaded!

WunderBlogs® & News

Nearby

Air Quality

  Air Quality AQ Index Pollutant
Not available.

Snow Depth

Station Depth Elevation

Earthquake Activity

City Distance Mag. Time & Date
Minimum magnitude displayed is 2.5.

Coastal Water Temperatures

Place Temperature

Stations

Nearby Weather Stations

Station Location Temp. Windchill Dew Point Humidity Wind Precip. Elev Updated Type